sensor_id;sensor_type;location;lat;lon;timestamp;P1;durP1;ratioP1;P2;durP2;ratioP2
40717;SDS011;26405;51.850;-2.246;2024-02-14T00:02:03;18.65;;;4.35;;
40717;SDS011;26405;51.850;-2.246;2024-02-14T00:07:02;14.43;;;4.05;;
40717;SDS011;26405;51.850;-2.246;2024-02-14T00:09:27;14.50;;;4.25;;
40717;SDS011;26405;51.850;-2.246;2024-02-14T00:11:53;13.15;;;3.75;;
40717;SDS011;26405;51.850;-2.246;2024-02-14T00:14:21;15.57;;;3.83;;
40717;SDS011;26405;51.850;-2.246;2024-02-14T00:16:50;14.93;;;4.35;;
40717;SDS011;26405;51.850;-2.246;2024-02-14T00:19:16;19.42;;;5.60;;
40717;SDS011;26405;51.850;-2.246;2024-02-14T00:21:41;16.70;;;4.13;;
40717;SDS011;26405;51.850;-2.246;2024-02-14T00:24:07;16.88;;;4.55;;
40717;SDS011;26405;51.850;-2.246;2024-02-14T00:26:32;13.00;;;3.70;;
40717;SDS011;26405;51.850;-2.246;2024-02-14T00:29:02;14.15;;;3.92;;
40717;SDS011;26405;51.850;-2.246;2024-02-14T00:31:30;13.18;;;3.90;;
40717;SDS011;26405;51.850;-2.246;2024-02-14T00:33:58;16.25;;;4.07;;
40717;SDS011;26405;51.850;-2.246;2024-02-14T00:36:23;14.70;;;4.03;;
40717;SDS011;26405;51.850;-2.246;2024-02-14T00:38:49;16.05;;;4.68;;
40717;SDS011;26405;51.850;-2.246;2024-02-14T00:41:14;15.43;;;3.53;;
40717;SDS011;26405;51.850;-2.246;2024-02-14T00:43:42;14.20;;;3.83;;
40717;SDS011;26405;51.850;-2.246;2024-02-14T00:46:08;15.52;;;4.07;;
40717;SDS011;26405;51.850;-2.246;2024-02-14T00:48:33;16.30;;;3.78;;
40717;SDS011;26405;51.850;-2.246;2024-02-14T00:51:03;14.40;;;3.90;;
40717;SDS011;26405;51.850;-2.246;2024-02-14T00:53:31;14.32;;;3.88;;
40717;SDS011;26405;51.850;-2.246;2024-02-14T00:56:17;16.52;;;4.40;;
40717;SDS011;26405;51.850;-2.246;2024-02-14T00:58:45;17.42;;;4.30;;
40717;SDS011;26405;51.850;-2.246;2024-02-14T01:01:13;19.42;;;4.20;;
40717;SDS011;26405;51.850;-2.246;2024-02-14T01:03:40;18.48;;;4.22;;
40717;SDS011;26405;51.850;-2.246;2024-02-14T01:08:56;18.13;;;4.03;;
40717;SDS011;26405;51.850;-2.246;2024-02-14T01:11:27;17.40;;;4.35;;
40717;SDS011;26405;51.850;-2.246;2024-02-14T01:14:04;19.05;;;4.32;;
40717;SDS011;26405;51.850;-2.246;2024-02-14T01:16:47;18.02;;;3.97;;
40717;SDS011;26405;51.850;-2.246;2024-02-14T01:19:17;14.90;;;3.83;;
40717;SDS011;26405;51.850;-2.246;2024-02-14T01:21:57;15.80;;;3.97;;
40717;SDS011;26405;51.850;-2.246;2024-02-14T01:24:22;14.77;;;3.95;;
40717;SDS011;26405;51.850;-2.246;2024-02-14T01:26:48;16.52;;;4.05;;
40717;SDS011;26405;51.850;-2.246;2024-02-14T01:29:18;16.40;;;4.03;;
40717;SDS011;26405;51.850;-2.246;2024-02-14T01:31:49;15.85;;;3.85;;
40717;SDS011;26405;51.850;-2.246;2024-02-14T01:34:26;16.08;;;3.65;;
40717;SDS011;26405;51.850;-2.246;2024-02-14T01:36:54;14.63;;;3.60;;
40717;SDS011;26405;51.850;-2.246;2024-02-14T01:39:23;14.43;;;3.95;;
40717;SDS011;26405;51.850;-2.246;2024-02-14T01:41:52;18.73;;;3.80;;
40717;SDS011;26405;51.850;-2.246;2024-02-14T01:44:29;15.15;;;3.45;;
40717;SDS011;26405;51.850;-2.246;2024-02-14T01:46:55;14.90;;;3.55;;
40717;SDS011;26405;51.850;-2.246;2024-02-14T01:49:21;15.68;;;4.03;;
40717;SDS011;26405;51.850;-2.246;2024-02-14T01:51:46;16.25;;;3.60;;
40717;SDS011;26405;51.850;-2.246;2024-02-14T01:57:02;14.95;;;3.35;;
40717;SDS011;26405;51.850;-2.246;2024-02-14T01:59:28;12.10;;;3.17;;
40717;SDS011;26405;51.850;-2.246;2024-02-14T02:01:55;13.27;;;3.25;;
40717;SDS011;26405;51.850;-2.246;2024-02-14T02:04:27;10.90;;;3.10;;
40717;SDS011;26405;51.850;-2.246;2024-02-14T02:06:52;12.50;;;3.28;;
40717;SDS011;26405;51.850;-2.246;2024-02-14T02:09:21;11.80;;;3.42;;
40717;SDS011;26405;51.850;-2.246;2024-02-14T02:14:44;15.98;;;3.30;;
40717;SDS011;26405;51.850;-2.246;2024-02-14T02:17:18;8.38;;;2.78;;
40717;SDS011;26405;51.850;-2.246;2024-02-14T02:20:02;10.73;;;2.70;;
40717;SDS011;26405;51.850;-2.246;2024-02-14T02:22:33;12.85;;;3.33;;
40717;SDS011;26405;51.850;-2.246;2024-02-14T02:27:56;10.98;;;3.10;;
40717;SDS011;26405;51.850;-2.246;2024-02-14T02:30:25;12.00;;;2.88;;
40717;SDS011;26405;51.850;-2.246;2024-02-14T02:32:53;10.43;;;2.90;;
40717;SDS011;26405;51.850;-2.246;2024-02-14T02:35:18;11.65;;;3.00;;
40717;SDS011;26405;51.850;-2.246;2024-02-14T02:37:55;11.45;;;3.33;;
40717;SDS011;26405;51.850;-2.246;2024-02-14T02:40:20;11.10;;;2.90;;
40717;SDS011;26405;51.850;-2.246;2024-02-14T02:42:57;11.88;;;3.00;;
40717;SDS011;26405;51.850;-2.246;2024-02-14T02:45:31;11.55;;;2.88;;
40717;SDS011;26405;51.850;-2.246;2024-02-14T02:47:56;6.15;;;2.42;;
40717;SDS011;26405;51.850;-2.246;2024-02-14T02:50:28;11.27;;;3.15;;
40717;SDS011;26405;51.850;-2.246;2024-02-14T02:53:10;10.85;;;2.90;;
40717;SDS011;26405;51.850;-2.246;2024-02-14T02:55:36;9.95;;;2.50;;
40717;SDS011;26405;51.850;-2.246;2024-02-14T02:58:02;9.07;;;2.50;;
40717;SDS011;26405;51.850;-2.246;2024-02-14T03:00:32;8.88;;;2.80;;
40717;SDS011;26405;51.850;-2.246;2024-02-14T03:02:58;9.00;;;2.53;;
40717;SDS011;26405;51.850;-2.246;2024-02-14T03:05:27;8.05;;;2.53;;
40717;SDS011;26405;51.850;-2.246;2024-02-14T03:07:53;12.20;;;3.03;;
40717;SDS011;26405;51.850;-2.246;2024-02-14T03:10:35;7.82;;;2.40;;
40717;SDS011;26405;51.850;-2.246;2024-02-14T03:13:00;8.85;;;2.55;;
40717;SDS011;26405;51.850;-2.246;2024-02-14T03:15:33;8.23;;;2.55;;
40717;SDS011;26405;51.850;-2.246;2024-02-14T03:18:01;8.93;;;2.60;;
40717;SDS011;26405;51.850;-2.246;2024-02-14T03:20:27;8.35;;;2.30;;
40717;SDS011;26405;51.850;-2.246;2024-02-14T03:22:54;8.35;;;2.47;;
40717;SDS011;26405;51.850;-2.246;2024-02-14T03:25:24;7.90;;;2.30;;
40717;SDS011;26405;51.850;-2.246;2024-02-14T03:27:58;10.48;;;2.83;;
40717;SDS011;26405;51.850;-2.246;2024-02-14T03:30:28;9.65;;;2.55;;
40717;SDS011;26405;51.850;-2.246;2024-02-14T03:32:57;9.63;;;2.50;;
40717;SDS011;26405;51.850;-2.246;2024-02-14T03:35:28;9.07;;;2.60;;
40717;SDS011;26405;51.850;-2.246;2024-02-14T03:38:05;11.48;;;2.60;;
40717;SDS011;26405;51.850;-2.246;2024-02-14T03:40:33;8.18;;;2.60;;
40717;SDS011;26405;51.850;-2.246;2024-02-14T03:43:00;8.40;;;2.50;;
40717;SDS011;26405;51.850;-2.246;2024-02-14T03:45:25;6.85;;;2.20;;
40717;SDS011;26405;51.850;-2.246;2024-02-14T03:47:58;7.95;;;2.50;;
40717;SDS011;26405;51.850;-2.246;2024-02-14T03:50:27;9.77;;;2.33;;
40717;SDS011;26405;51.850;-2.246;2024-02-14T03:52:53;6.28;;;2.30;;
40717;SDS011;26405;51.850;-2.246;2024-02-14T03:55:20;11.10;;;2.75;;
40717;SDS011;26405;51.850;-2.246;2024-02-14T03:57:48;7.47;;;2.08;;
40717;SDS011;26405;51.850;-2.246;2024-02-14T04:00:13;12.60;;;2.55;;
40717;SDS011;26405;51.850;-2.246;2024-02-14T04:02:39;8.32;;;2.53;;
40717;SDS011;26405;51.850;-2.246;2024-02-14T04:05:05;9.90;;;2.30;;
40717;SDS011;26405;51.850;-2.246;2024-02-14T04:07:39;9.40;;;2.40;;
40717;SDS011;26405;51.850;-2.246;2024-02-14T04:10:15;11.43;;;2.65;;
40717;SDS011;26405;51.850;-2.246;2024-02-14T04:13:38;7.90;;;2.33;;
40717;SDS011;26405;51.850;-2.246;2024-02-14T04:15:45;10.63;;;2.80;;
40717;SDS011;26405;51.850;-2.246;2024-02-14T04:18:20;10.10;;;2.40;;
40717;SDS011;26405;51.850;-2.246;2024-02-14T04:20:48;8.07;;;2.35;;
40717;SDS011;26405;51.850;-2.246;2024-02-14T04:23:13;7.97;;;2.20;;
40717;SDS011;26405;51.850;-2.246;2024-02-14T04:25:39;9.63;;;2.50;;
40717;SDS011;26405;51.850;-2.246;2024-02-14T04:28:04;9.65;;;2.80;;
40717;SDS011;26405;51.850;-2.246;2024-02-14T04:30:32;8.45;;;2.05;;
40717;SDS011;26405;51.850;-2.246;2024-02-14T04:33:01;5.28;;;2.20;;
40717;SDS011;26405;51.850;-2.246;2024-02-14T04:35:31;8.90;;;2.20;;
40717;SDS011;26405;51.850;-2.246;2024-02-14T04:38:00;6.13;;;2.15;;
40717;SDS011;26405;51.850;-2.246;2024-02-14T04:40:28;7.72;;;2.10;;
40717;SDS011;26405;51.850;-2.246;2024-02-14T04:42:53;6.53;;;2.05;;
40717;SDS011;26405;51.850;-2.246;2024-02-14T04:45:19;7.93;;;2.20;;
40717;SDS011;26405;51.850;-2.246;2024-02-14T04:47:45;7.85;;;2.42;;
40717;SDS011;26405;51.850;-2.246;2024-02-14T04:50:10;8.82;;;2.53;;
40717;SDS011;26405;51.850;-2.246;2024-02-14T04:52:41;6.28;;;2.10;;
40717;SDS011;26405;51.850;-2.246;2024-02-14T04:55:08;7.03;;;2.30;;
40717;SDS011;26405;51.850;-2.246;2024-02-14T04:57:38;8.13;;;2.45;;
40717;SDS011;26405;51.850;-2.246;2024-02-14T05:00:04;8.50;;;2.20;;
40717;SDS011;26405;51.850;-2.246;2024-02-14T05:02:32;7.13;;;2.03;;
40717;SDS011;26405;51.850;-2.246;2024-02-14T05:05:00;9.13;;;2.30;;
40717;SDS011;26405;51.850;-2.246;2024-02-14T05:07:26;11.25;;;2.40;;
40717;SDS011;26405;51.850;-2.246;2024-02-14T05:09:55;6.38;;;2.30;;
40717;SDS011;26405;51.850;-2.246;2024-02-14T05:12:22;9.23;;;2.38;;
40717;SDS011;26405;51.850;-2.246;2024-02-14T05:14:57;11.38;;;2.45;;
40717;SDS011;26405;51.850;-2.246;2024-02-14T05:17:25;7.28;;;2.15;;
40717;SDS011;26405;51.850;-2.246;2024-02-14T05:19:55;10.38;;;2.40;;
40717;SDS011;26405;51.850;-2.246;2024-02-14T05:22:26;9.38;;;2.30;;
40717;SDS011;26405;51.850;-2.246;2024-02-14T05:24:53;8.02;;;2.25;;
40717;SDS011;26405;51.850;-2.246;2024-02-14T05:27:20;9.63;;;2.80;;
40717;SDS011;26405;51.850;-2.246;2024-02-14T05:29:45;6.95;;;2.22;;
40717;SDS011;26405;51.850;-2.246;2024-02-14T05:32:18;6.63;;;2.28;;
40717;SDS011;26405;51.850;-2.246;2024-02-14T05:34:50;10.88;;;2.42;;
40717;SDS011;26405;51.850;-2.246;2024-02-14T05:37:17;9.40;;;2.20;;
40717;SDS011;26405;51.850;-2.246;2024-02-14T05:39:43;9.57;;;2.47;;
40717;SDS011;26405;51.850;-2.246;2024-02-14T05:42:08;5.72;;;2.20;;
40717;SDS011;26405;51.850;-2.246;2024-02-14T05:44:33;8.30;;;2.20;;
40717;SDS011;26405;51.850;-2.246;2024-02-14T05:46:59;8.48;;;2.30;;
40717;SDS011;26405;51.850;-2.246;2024-02-14T05:49:26;6.72;;;2.22;;
40717;SDS011;26405;51.850;-2.246;2024-02-14T05:51:51;6.82;;;2.22;;
40717;SDS011;26405;51.850;-2.246;2024-02-14T05:54:18;7.63;;;2.10;;
40717;SDS011;26405;51.850;-2.246;2024-02-14T05:56:46;7.05;;;2.13;;
40717;SDS011;26405;51.850;-2.246;2024-02-14T05:59:12;8.38;;;2.47;;
40717;SDS011;26405;51.850;-2.246;2024-02-14T06:01:45;6.38;;;2.08;;
40717;SDS011;26405;51.850;-2.246;2024-02-14T06:04:10;8.02;;;2.30;;
40717;SDS011;26405;51.850;-2.246;2024-02-14T06:06:38;8.00;;;2.40;;
40717;SDS011;26405;51.850;-2.246;2024-02-14T06:09:06;9.07;;;2.10;;
40717;SDS011;26405;51.850;-2.246;2024-02-14T06:11:38;5.28;;;2.20;;
40717;SDS011;26405;51.850;-2.246;2024-02-14T06:14:10;4.55;;;2.00;;
40717;SDS011;26405;51.850;-2.246;2024-02-14T06:16:45;6.40;;;2.10;;
40717;SDS011;26405;51.850;-2.246;2024-02-14T06:19:11;5.93;;;2.20;;
40717;SDS011;26405;51.850;-2.246;2024-02-14T06:21:39;6.65;;;2.00;;
40717;SDS011;26405;51.850;-2.246;2024-02-14T06:24:09;6.28;;;1.90;;
40717;SDS011;26405;51.850;-2.246;2024-02-14T06:26:38;5.13;;;1.60;;
40717;SDS011;26405;51.850;-2.246;2024-02-14T06:29:03;5.70;;;2.10;;
40717;SDS011;26405;51.850;-2.246;2024-02-14T06:31:33;6.68;;;2.10;;
40717;SDS011;26405;51.850;-2.246;2024-02-14T06:34:17;6.50;;;2.05;;
40717;SDS011;26405;51.850;-2.246;2024-02-14T06:36:52;5.55;;;1.77;;
40717;SDS011;26405;51.850;-2.246;2024-02-14T06:39:28;4.43;;;1.85;;
40717;SDS011;26405;51.850;-2.246;2024-02-14T06:41:53;4.70;;;1.95;;
40717;SDS011;26405;51.850;-2.246;2024-02-14T06:44:28;4.85;;;2.15;;
40717;SDS011;26405;51.850;-2.246;2024-02-14T06:46:54;4.97;;;2.00;;
40717;SDS011;26405;51.850;-2.246;2024-02-14T06:49:25;4.03;;;1.77;;
40717;SDS011;26405;51.850;-2.246;2024-02-14T06:51:54;3.70;;;1.60;;
40717;SDS011;26405;51.850;-2.246;2024-02-14T06:54:24;2.58;;;1.70;;
40717;SDS011;26405;51.850;-2.246;2024-02-14T06:56:50;2.97;;;1.77;;
40717;SDS011;26405;51.850;-2.246;2024-02-14T06:59:20;6.55;;;3.28;;
40717;SDS011;26405;51.850;-2.246;2024-02-14T07:01:46;9.23;;;3.30;;
40717;SDS011;26405;51.850;-2.246;2024-02-14T07:04:19;7.47;;;2.28;;
40717;SDS011;26405;51.850;-2.246;2024-02-14T07:06:56;6.20;;;2.20;;
40717;SDS011;26405;51.850;-2.246;2024-02-14T07:09:27;4.38;;;1.95;;
40717;SDS011;26405;51.850;-2.246;2024-02-14T07:11:54;5.03;;;1.85;;
40717;SDS011;26405;51.850;-2.246;2024-02-14T07:14:21;4.45;;;2.40;;
40717;SDS011;26405;51.850;-2.246;2024-02-14T07:17:08;4.35;;;1.75;;
40717;SDS011;26405;51.850;-2.246;2024-02-14T07:19:33;3.65;;;1.75;;
40717;SDS011;26405;51.850;-2.246;2024-02-14T07:22:00;5.13;;;2.13;;
40717;SDS011;26405;51.850;-2.246;2024-02-14T07:24:36;6.53;;;2.10;;
40717;SDS011;26405;51.850;-2.246;2024-02-14T07:27:04;4.18;;;1.83;;
40717;SDS011;26405;51.850;-2.246;2024-02-14T07:29:30;3.30;;;1.63;;
40717;SDS011;26405;51.850;-2.246;2024-02-14T07:31:55;5.25;;;2.33;;
40717;SDS011;26405;51.850;-2.246;2024-02-14T07:34:23;5.35;;;1.90;;
40717;SDS011;26405;51.850;-2.246;2024-02-14T07:36:51;5.57;;;2.25;;
40717;SDS011;26405;51.850;-2.246;2024-02-14T07:39:16;3.53;;;1.73;;
40717;SDS011;26405;51.850;-2.246;2024-02-14T07:41:47;4.25;;;2.03;;
40717;SDS011;26405;51.850;-2.246;2024-02-14T07:44:13;3.75;;;2.00;;
40717;SDS011;26405;51.850;-2.246;2024-02-14T07:46:38;3.15;;;1.75;;
40717;SDS011;26405;51.850;-2.246;2024-02-14T07:49:03;6.22;;;2.65;;
40717;SDS011;26405;51.850;-2.246;2024-02-14T07:51:30;5.87;;;2.20;;
40717;SDS011;26405;51.850;-2.246;2024-02-14T07:54:02;4.60;;;2.30;;
40717;SDS011;26405;51.850;-2.246;2024-02-14T07:56:28;6.40;;;3.17;;
40717;SDS011;26405;51.850;-2.246;2024-02-14T07:58:54;5.82;;;2.40;;
40717;SDS011;26405;51.850;-2.246;2024-02-14T08:01:19;6.28;;;2.70;;
40717;SDS011;26405;51.850;-2.246;2024-02-14T08:03:44;2.45;;;1.60;;
40717;SDS011;26405;51.850;-2.246;2024-02-14T08:06:11;2.33;;;1.63;;
40717;SDS011;26405;51.850;-2.246;2024-02-14T08:08:39;2.60;;;1.50;;
40717;SDS011;26405;51.850;-2.246;2024-02-14T08:11:05;3.80;;;1.60;;
40717;SDS011;26405;51.850;-2.246;2024-02-14T08:13:33;2.40;;;1.30;;
40717;SDS011;26405;51.850;-2.246;2024-02-14T08:15:59;4.65;;;1.40;;
40717;SDS011;26405;51.850;-2.246;2024-02-14T08:18:25;4.82;;;1.50;;
40717;SDS011;26405;51.850;-2.246;2024-02-14T08:23:20;2.58;;;1.70;;
40717;SDS011;26405;51.850;-2.246;2024-02-14T08:25:45;3.33;;;1.52;;
40717;SDS011;26405;51.850;-2.246;2024-02-14T08:28:11;3.95;;;1.73;;
40717;SDS011;26405;51.850;-2.246;2024-02-14T08:30:39;5.68;;;1.70;;
40717;SDS011;26405;51.850;-2.246;2024-02-14T08:33:04;4.53;;;1.55;;
40717;SDS011;26405;51.850;-2.246;2024-02-14T08:35:35;4.57;;;1.63;;
40717;SDS011;26405;51.850;-2.246;2024-02-14T08:38:00;2.63;;;1.35;;
40717;SDS011;26405;51.850;-2.246;2024-02-14T08:40:27;4.82;;;1.70;;
40717;SDS011;26405;51.850;-2.246;2024-02-14T08:42:52;3.75;;;1.65;;
40717;SDS011;26405;51.850;-2.246;2024-02-14T08:45:20;4.10;;;1.77;;
40717;SDS011;26405;51.850;-2.246;2024-02-14T08:47:45;4.75;;;1.92;;
40717;SDS011;26405;51.850;-2.246;2024-02-14T08:50:11;3.63;;;1.90;;
40717;SDS011;26405;51.850;-2.246;2024-02-14T08:52:40;6.47;;;1.75;;
40717;SDS011;26405;51.850;-2.246;2024-02-14T08:55:06;5.10;;;2.50;;
40717;SDS011;26405;51.850;-2.246;2024-02-14T08:57:33;7.43;;;2.80;;
40717;SDS011;26405;51.850;-2.246;2024-02-14T08:59:58;4.65;;;1.60;;
40717;SDS011;26405;51.850;-2.246;2024-02-14T09:04:50;4.70;;;1.40;;
40717;SDS011;26405;51.850;-2.246;2024-02-14T09:07:23;2.85;;;1.45;;
40717;SDS011;26405;51.850;-2.246;2024-02-14T09:09:51;3.58;;;1.48;;
40717;SDS011;26405;51.850;-2.246;2024-02-14T09:12:17;2.50;;;1.33;;
40717;SDS011;26405;51.850;-2.246;2024-02-14T09:14:42;3.75;;;1.70;;
40717;SDS011;26405;51.850;-2.246;2024-02-14T09:17:13;3.05;;;1.50;;
40717;SDS011;26405;51.850;-2.246;2024-02-14T09:19:41;4.10;;;1.73;;
40717;SDS011;26405;51.850;-2.246;2024-02-14T09:22:06;4.15;;;1.40;;
40717;SDS011;26405;51.850;-2.246;2024-02-14T09:24:32;4.10;;;1.50;;
40717;SDS011;26405;51.850;-2.246;2024-02-14T09:26:57;5.32;;;1.50;;
40717;SDS011;26405;51.850;-2.246;2024-02-14T09:29:26;4.03;;;1.30;;
40717;SDS011;26405;51.850;-2.246;2024-02-14T09:32:10;3.88;;;1.58;;
40717;SDS011;26405;51.850;-2.246;2024-02-14T09:34:37;2.75;;;1.30;;
40717;SDS011;26405;51.850;-2.246;2024-02-14T09:37:03;2.75;;;1.40;;
40717;SDS011;26405;51.850;-2.246;2024-02-14T09:39:30;2.38;;;1.27;;
40717;SDS011;26405;51.850;-2.246;2024-02-14T09:41:58;2.67;;;1.40;;
40717;SDS011;26405;51.850;-2.246;2024-02-14T09:44:26;1.42;;;1.33;;
40717;SDS011;26405;51.850;-2.246;2024-02-14T09:46:53;2.70;;;1.30;;
40717;SDS011;26405;51.850;-2.246;2024-02-14T09:49:20;5.10;;;1.73;;
40717;SDS011;26405;51.850;-2.246;2024-02-14T09:51:48;3.65;;;1.38;;
40717;SDS011;26405;51.850;-2.246;2024-02-14T09:54:14;3.65;;;1.60;;
40717;SDS011;26405;51.850;-2.246;2024-02-14T09:56:47;4.28;;;1.17;;
40717;SDS011;26405;51.850;-2.246;2024-02-14T09:59:15;1.75;;;1.10;;
40717;SDS011;26405;51.850;-2.246;2024-02-14T10:01:43;2.13;;;1.30;;
40717;SDS011;26405;51.850;-2.246;2024-02-14T10:04:12;2.60;;;1.30;;
40717;SDS011;26405;51.850;-2.246;2024-02-14T10:06:39;3.10;;;1.20;;
40717;SDS011;26405;51.850;-2.246;2024-02-14T10:09:04;2.63;;;1.27;;
40717;SDS011;26405;51.850;-2.246;2024-02-14T10:11:34;1.55;;;1.25;;
40717;SDS011;26405;51.850;-2.246;2024-02-14T10:14:04;1.70;;;1.10;;
40717;SDS011;26405;51.850;-2.246;2024-02-14T10:16:29;1.40;;;1.13;;
40717;SDS011;26405;51.850;-2.246;2024-02-14T10:18:56;1.88;;;1.15;;
40717;SDS011;26405;51.850;-2.246;2024-02-14T10:21:21;2.95;;;1.20;;
40717;SDS011;26405;51.850;-2.246;2024-02-14T10:23:49;2.35;;;1.33;;
40717;SDS011;26405;51.850;-2.246;2024-02-14T10:26:17;1.35;;;1.35;;
40717;SDS011;26405;51.850;-2.246;2024-02-14T10:28:43;1.95;;;1.25;;
40717;SDS011;26405;51.850;-2.246;2024-02-14T10:31:12;2.72;;;1.27;;
40717;SDS011;26405;51.850;-2.246;2024-02-14T10:33:38;1.63;;;1.27;;
40717;SDS011;26405;51.850;-2.246;2024-02-14T10:36:03;3.95;;;1.20;;
40717;SDS011;26405;51.850;-2.246;2024-02-14T10:38:32;2.13;;;1.50;;
40717;SDS011;26405;51.850;-2.246;2024-02-14T10:40:58;2.55;;;1.60;;
40717;SDS011;26405;51.850;-2.246;2024-02-14T10:43:25;4.18;;;1.75;;
40717;SDS011;26405;51.850;-2.246;2024-02-14T10:45:50;4.43;;;1.65;;
40717;SDS011;26405;51.850;-2.246;2024-02-14T10:48:21;3.67;;;1.45;;
40717;SDS011;26405;51.850;-2.246;2024-02-14T10:50:50;3.05;;;1.55;;
40717;SDS011;26405;51.850;-2.246;2024-02-14T10:53:17;4.28;;;1.70;;
40717;SDS011;26405;51.850;-2.246;2024-02-14T10:55:45;3.20;;;1.37;;
40717;SDS011;26405;51.850;-2.246;2024-02-14T11:00:36;5.10;;;1.60;;
40717;SDS011;26405;51.850;-2.246;2024-02-14T11:03:02;5.45;;;1.80;;
40717;SDS011;26405;51.850;-2.246;2024-02-14T11:05:27;6.05;;;2.15;;
40717;SDS011;26405;51.850;-2.246;2024-02-14T11:07:53;6.07;;;1.70;;
40717;SDS011;26405;51.850;-2.246;2024-02-14T11:10:19;5.60;;;2.00;;
40717;SDS011;26405;51.850;-2.246;2024-02-14T11:12:50;7.95;;;2.20;;
40717;SDS011;26405;51.850;-2.246;2024-02-14T11:15:35;16.60;;;3.35;;
40717;SDS011;26405;51.850;-2.246;2024-02-14T11:18:05;9.63;;;2.45;;
40717;SDS011;26405;51.850;-2.246;2024-02-14T11:20:33;10.15;;;2.60;;
40717;SDS011;26405;51.850;-2.246;2024-02-14T11:23:03;11.57;;;2.63;;
40717;SDS011;26405;51.850;-2.246;2024-02-14T11:25:30;9.93;;;2.83;;
40717;SDS011;26405;51.850;-2.246;2024-02-14T11:27:57;8.02;;;2.60;;
40717;SDS011;26405;51.850;-2.246;2024-02-14T11:30:31;8.88;;;2.75;;
40717;SDS011;26405;51.850;-2.246;2024-02-14T11:35:52;13.55;;;2.90;;
40717;SDS011;26405;51.850;-2.246;2024-02-14T11:38:33;8.95;;;3.00;;
40717;SDS011;26405;51.850;-2.246;2024-02-14T11:40:58;12.40;;;3.00;;
40717;SDS011;26405;51.850;-2.246;2024-02-14T11:43:24;9.10;;;2.80;;
40717;SDS011;26405;51.850;-2.246;2024-02-14T11:45:50;8.68;;;2.85;;
40717;SDS011;26405;51.850;-2.246;2024-02-14T11:50:44;8.03;;;2.47;;
40717;SDS011;26405;51.850;-2.246;2024-02-14T11:53:10;6.72;;;2.72;;
40717;SDS011;26405;51.850;-2.246;2024-02-14T11:55:39;8.13;;;2.60;;
40717;SDS011;26405;51.850;-2.246;2024-02-14T11:58:09;5.82;;;2.28;;
40717;SDS011;26405;51.850;-2.246;2024-02-14T12:00:40;6.50;;;2.28;;
40717;SDS011;26405;51.850;-2.246;2024-02-14T12:03:06;12.35;;;2.53;;
40717;SDS011;26405;51.850;-2.246;2024-02-14T12:05:32;7.93;;;2.47;;
40717;SDS011;26405;51.850;-2.246;2024-02-14T12:07:59;10.02;;;2.20;;
40717;SDS011;26405;51.850;-2.246;2024-02-14T12:13:13;10.13;;;2.65;;
40717;SDS011;26405;51.850;-2.246;2024-02-14T12:15:41;8.02;;;2.60;;
40717;SDS011;26405;51.850;-2.246;2024-02-14T12:18:08;7.97;;;2.53;;
40717;SDS011;26405;51.850;-2.246;2024-02-14T12:20:51;11.10;;;2.55;;
40717;SDS011;26405;51.850;-2.246;2024-02-14T12:23:17;7.07;;;2.60;;
40717;SDS011;26405;51.850;-2.246;2024-02-14T12:25:54;5.20;;;2.10;;
40717;SDS011;26405;51.850;-2.246;2024-02-14T12:28:32;9.15;;;2.50;;
40717;SDS011;26405;51.850;-2.246;2024-02-14T12:30:57;6.75;;;2.22;;
40717;SDS011;26405;51.850;-2.246;2024-02-14T12:33:24;5.07;;;2.35;;
40717;SDS011;26405;51.850;-2.246;2024-02-14T12:36:00;5.90;;;2.33;;
40717;SDS011;26405;51.850;-2.246;2024-02-14T12:38:25;8.60;;;2.60;;
40717;SDS011;26405;51.850;-2.246;2024-02-14T12:40:53;10.82;;;2.60;;
40717;SDS011;26405;51.850;-2.246;2024-02-14T12:45:59;7.90;;;2.10;;
40717;SDS011;26405;51.850;-2.246;2024-02-14T12:48:25;8.70;;;2.63;;
40717;SDS011;26405;51.850;-2.246;2024-02-14T12:50:54;6.97;;;2.40;;
40717;SDS011;26405;51.850;-2.246;2024-02-14T12:53:21;12.90;;;2.80;;
40717;SDS011;26405;51.850;-2.246;2024-02-14T12:55:46;8.00;;;2.60;;
40717;SDS011;26405;51.850;-2.246;2024-02-14T12:58:15;18.17;;;3.05;;
40717;SDS011;26405;51.850;-2.246;2024-02-14T13:00:44;9.98;;;2.72;;
40717;SDS011;26405;51.850;-2.246;2024-02-14T13:03:10;12.93;;;2.80;;
40717;SDS011;26405;51.850;-2.246;2024-02-14T13:05:38;10.52;;;2.70;;
40717;SDS011;26405;51.850;-2.246;2024-02-14T13:08:07;10.27;;;2.83;;
40717;SDS011;26405;51.850;-2.246;2024-02-14T13:10:32;10.65;;;2.85;;
40717;SDS011;26405;51.850;-2.246;2024-02-14T13:12:57;11.45;;;3.00;;
40717;SDS011;26405;51.850;-2.246;2024-02-14T13:15:23;11.63;;;2.67;;
40717;SDS011;26405;51.850;-2.246;2024-02-14T13:17:53;9.85;;;2.65;;
40717;SDS011;26405;51.850;-2.246;2024-02-14T13:20:21;11.90;;;2.85;;
40717;SDS011;26405;51.850;-2.246;2024-02-14T13:22:51;7.68;;;2.55;;
40717;SDS011;26405;51.850;-2.246;2024-02-14T13:25:24;6.50;;;2.50;;
40717;SDS011;26405;51.850;-2.246;2024-02-14T13:28:07;9.63;;;2.58;;
40717;SDS011;26405;51.850;-2.246;2024-02-14T13:30:33;8.70;;;2.50;;
40717;SDS011;26405;51.850;-2.246;2024-02-14T13:33:00;11.25;;;2.80;;
40717;SDS011;26405;51.850;-2.246;2024-02-14T13:35:26;11.18;;;2.80;;
40717;SDS011;26405;51.850;-2.246;2024-02-14T13:38:00;9.50;;;2.53;;
40717;SDS011;26405;51.850;-2.246;2024-02-14T13:40:25;10.20;;;2.70;;
40717;SDS011;26405;51.850;-2.246;2024-02-14T13:42:54;10.77;;;2.65;;
40717;SDS011;26405;51.850;-2.246;2024-02-14T13:45:19;12.15;;;2.95;;
40717;SDS011;26405;51.850;-2.246;2024-02-14T13:48:01;13.27;;;2.83;;
40717;SDS011;26405;51.850;-2.246;2024-02-14T13:50:32;9.20;;;2.58;;
40717;SDS011;26405;51.850;-2.246;2024-02-14T13:52:58;8.82;;;2.65;;
40717;SDS011;26405;51.850;-2.246;2024-02-14T13:55:23;9.52;;;3.05;;
40717;SDS011;26405;51.850;-2.246;2024-02-14T13:57:49;10.63;;;2.95;;
40717;SDS011;26405;51.850;-2.246;2024-02-14T14:00:15;12.23;;;3.28;;
40717;SDS011;26405;51.850;-2.246;2024-02-14T14:02:53;13.20;;;3.30;;
40717;SDS011;26405;51.850;-2.246;2024-02-14T14:05:21;12.10;;;3.10;;
40717;SDS011;26405;51.850;-2.246;2024-02-14T14:07:47;12.57;;;3.30;;
40717;SDS011;26405;51.850;-2.246;2024-02-14T14:10:12;12.65;;;2.95;;
40717;SDS011;26405;51.850;-2.246;2024-02-14T14:12:37;12.02;;;3.55;;
40717;SDS011;26405;51.850;-2.246;2024-02-14T14:15:03;12.77;;;3.20;;
40717;SDS011;26405;51.850;-2.246;2024-02-14T14:17:29;11.90;;;3.05;;
40717;SDS011;26405;51.850;-2.246;2024-02-14T14:19:55;10.93;;;3.38;;
40717;SDS011;26405;51.850;-2.246;2024-02-14T14:22:25;11.07;;;3.00;;
40717;SDS011;26405;51.850;-2.246;2024-02-14T14:24:54;8.88;;;2.88;;
40717;SDS011;26405;51.850;-2.246;2024-02-14T14:27:19;10.65;;;2.97;;
40717;SDS011;26405;51.850;-2.246;2024-02-14T14:29:46;8.43;;;2.83;;
40717;SDS011;26405;51.850;-2.246;2024-02-14T14:32:11;8.20;;;2.88;;
40717;SDS011;26405;51.850;-2.246;2024-02-14T14:34:37;9.85;;;2.80;;
40717;SDS011;26405;51.850;-2.246;2024-02-14T14:37:02;8.27;;;2.83;;
40717;SDS011;26405;51.850;-2.246;2024-02-14T14:39:28;10.63;;;3.13;;
40717;SDS011;26405;51.850;-2.246;2024-02-14T14:41:53;8.00;;;2.85;;
40717;SDS011;26405;51.850;-2.246;2024-02-14T14:44:25;11.02;;;3.25;;
40717;SDS011;26405;51.850;-2.246;2024-02-14T14:46:51;11.27;;;3.35;;
40717;SDS011;26405;51.850;-2.246;2024-02-14T14:49:16;12.25;;;3.45;;
40717;SDS011;26405;51.850;-2.246;2024-02-14T14:51:42;11.73;;;3.65;;
40717;SDS011;26405;51.850;-2.246;2024-02-14T14:54:07;9.20;;;3.40;;
40717;SDS011;26405;51.850;-2.246;2024-02-14T14:56:32;11.52;;;3.38;;
40717;SDS011;26405;51.850;-2.246;2024-02-14T14:58:58;13.25;;;3.25;;
40717;SDS011;26405;51.850;-2.246;2024-02-14T15:01:25;11.98;;;3.35;;
40717;SDS011;26405;51.850;-2.246;2024-02-14T15:03:51;9.83;;;3.00;;
40717;SDS011;26405;51.850;-2.246;2024-02-14T15:06:18;10.75;;;2.90;;
40717;SDS011;26405;51.850;-2.246;2024-02-14T15:08:46;10.00;;;3.07;;
40717;SDS011;26405;51.850;-2.246;2024-02-14T15:11:12;10.55;;;3.08;;